CES3694 ZBAD-ZSSS
Flight info
| Callsign | CES3694 |
|---|---|
| Flight time | 1h 27m |
| Altitude | 35100 |
| Route | ELKUR4K ELKUR W40 YQG/K0846S1100 W142 DALIM/K0846S1070 A593 DPX A470 DALNU W166 ZJ W167 SASAN R343 PK |
| Aircraft | A320/M-SDE3FGHIRWY/LB1 |
Departure
| Time | 2026-05-06 13:40 |
|---|---|
| Airport | Beijing Daxing International Airport (ZBAD) |
Arrival
| Time | 2026-05-06 15:07 |
|---|---|
| Airport | Shanghai Hongqiao International Airport (ZSSS) |
| Time | Latitude | Longitude | Altitude | Speed | Heading |
|---|---|---|---|---|---|
| 2026-05-06 13:29 | 39.51370 | 116.41737 | 84 ft | 0 kts | 246° |
| 2026-05-06 13:31 | 39.51373 | 116.41746 | 89 ft | 4 kts | 246° |
| 2026-05-06 13:32 | 39.51383 | 116.41777 | 88 ft | 4 kts | 246° |
| 2026-05-06 13:32 | 39.51391 | 116.41801 | 86 ft | 4 kts | 229° |
| 2026-05-06 13:32 | 39.51407 | 116.41813 | 88 ft | 4 kts | 160° |
| 2026-05-06 13:32 | 39.51427 | 116.41797 | 89 ft | 4 kts | 143° |
| 2026-05-06 13:33 | 39.51434 | 116.41790 | 90 ft | 0 kts | 143° |
| 2026-05-06 13:35 | 39.51430 | 116.41793 | 90 ft | 4 kts | 143° |
| 2026-05-06 13:35 | 39.51396 | 116.41826 | 88 ft | 6 kts | 143° |
| 2026-05-06 13:35 | 39.51370 | 116.41855 | 88 ft | 4 kts | 130° |
| 2026-05-06 13:35 | 39.51368 | 116.41925 | 88 ft | 16 kts | 79° |
| 2026-05-06 13:36 | 39.51397 | 116.42076 | 88 ft | 18 kts | 76° |
| 2026-05-06 13:36 | 39.51417 | 116.42239 | 86 ft | 19 kts | 83° |
| 2026-05-06 13:36 | 39.51436 | 116.42412 | 85 ft | 20 kts | 82° |
| 2026-05-06 13:36 | 39.51452 | 116.42596 | 87 ft | 21 kts | 84° |
| 2026-05-06 13:37 | 39.51471 | 116.42788 | 87 ft | 22 kts | 82° |
| 2026-05-06 13:37 | 39.51491 | 116.42986 | 86 ft | 19 kts | 82° |
| 2026-05-06 13:37 | 39.51515 | 116.43097 | 89 ft | 10 kts | 40° |
| 2026-05-06 13:37 | 39.51563 | 116.43117 | 92 ft | 4 kts | 13° |
| 2026-05-06 13:38 | 39.51570 | 116.43119 | 94 ft | 2 kts | 13° |
| 2026-05-06 13:38 | 39.51618 | 116.43134 | 96 ft | 6 kts | 13° |
| 2026-05-06 13:38 | 39.51650 | 116.43149 | 98 ft | 7 kts | 37° |
| 2026-05-06 13:38 | 39.51657 | 116.43216 | 99 ft | 8 kts | 104° |
| 2026-05-06 13:39 | 39.51635 | 116.43333 | 98 ft | 35 kts | 103° |
| 2026-05-06 13:39 | 39.51522 | 116.43955 | 98 ft | 103 kts | 103° |
| 2026-05-06 13:39 | 39.51319 | 116.45083 | 97 ft | 152 kts | 103° |
| 2026-05-06 13:39 | 39.51055 | 116.46555 | 322 ft | 177 kts | 103° |
| 2026-05-06 13:40 | 39.50775 | 116.48115 | 947 ft | 177 kts | 101° |
| 2026-05-06 13:40 | 39.50493 | 116.49686 | 1501 ft | 185 kts | 101° |
| 2026-05-06 13:40 | 39.50186 | 116.51409 | 1748 ft | 208 kts | 101° |
| 2026-05-06 13:40 | 39.49849 | 116.53311 | 2000 ft | 232 kts | 101° |
| 2026-05-06 13:41 | 39.49462 | 116.55485 | 2380 ft | 257 kts | 100° |
| 2026-05-06 13:41 | 39.49055 | 116.57764 | 3024 ft | 268 kts | 100° |
| 2026-05-06 13:41 | 39.48626 | 116.60139 | 3846 ft | 274 kts | 99° |
| 2026-05-06 13:41 | 39.48186 | 116.62568 | 4617 ft | 280 kts | 99° |
| 2026-05-06 13:42 | 39.47750 | 116.65040 | 4863 ft | 282 kts | 98° |
| 2026-05-06 13:42 | 39.47359 | 116.67526 | 4935 ft | 281 kts | 97° |
| 2026-05-06 13:42 | 39.46996 | 116.70003 | 4939 ft | 280 kts | 96° |
| 2026-05-06 13:42 | 39.46640 | 116.72486 | 4939 ft | 281 kts | 96° |
| 2026-05-06 13:43 | 39.46156 | 116.74943 | 4939 ft | 284 kts | 109° |
| 2026-05-06 13:43 | 39.45128 | 116.77111 | 4939 ft | 289 kts | 130° |
| 2026-05-06 13:43 | 39.43525 | 116.78734 | 5374 ft | 298 kts | 152° |
| 2026-05-06 13:43 | 39.41616 | 116.79761 | 6325 ft | 298 kts | 159° |
| 2026-05-06 13:44 | 39.39680 | 116.80744 | 7168 ft | 300 kts | 159° |
| 2026-05-06 13:44 | 39.37734 | 116.81741 | 8007 ft | 302 kts | 158° |
| 2026-05-06 13:44 | 39.35775 | 116.82744 | 8863 ft | 303 kts | 159° |
| 2026-05-06 13:44 | 39.33811 | 116.83745 | 9731 ft | 305 kts | 159° |
| 2026-05-06 13:45 | 39.31817 | 116.84756 | 10379 ft | 314 kts | 160° |
| 2026-05-06 13:45 | 39.27446 | 116.86970 | 10761 ft | 360 kts | 160° |
| 2026-05-06 13:45 | 39.25095 | 116.88160 | 11203 ft | 370 kts | 160° |
| 2026-05-06 13:46 | 39.22682 | 116.89382 | 11833 ft | 375 kts | 161° |
| 2026-05-06 13:46 | 39.20235 | 116.90624 | 12538 ft | 378 kts | 162° |
| 2026-05-06 13:46 | 39.17782 | 116.91866 | 13242 ft | 381 kts | 162° |
| 2026-05-06 13:46 | 39.15290 | 116.93119 | 13904 ft | 384 kts | 164° |
| 2026-05-06 13:47 | 39.12795 | 116.94367 | 14521 ft | 387 kts | 164° |
| 2026-05-06 13:47 | 39.10276 | 116.95631 | 15120 ft | 389 kts | 164° |
| 2026-05-06 13:47 | 39.07732 | 116.96901 | 15712 ft | 392 kts | 166° |
| 2026-05-06 13:47 | 39.05149 | 116.97681 | 16251 ft | 385 kts | 180° |
| 2026-05-06 13:48 | 39.02473 | 116.97995 | 16826 ft | 387 kts | 181° |
| 2026-05-06 13:48 | 38.99784 | 116.98293 | 17389 ft | 390 kts | 181° |
| 2026-05-06 13:48 | 38.97067 | 116.98590 | 17951 ft | 392 kts | 181° |
| 2026-05-06 13:48 | 38.94344 | 116.98887 | 18470 ft | 395 kts | 182° |
| 2026-05-06 13:49 | 38.91588 | 116.99189 | 18905 ft | 398 kts | 181° |
| 2026-05-06 13:49 | 38.88816 | 116.99495 | 19381 ft | 400 kts | 182° |
| 2026-05-06 13:49 | 38.86041 | 116.99802 | 19865 ft | 402 kts | 182° |
| 2026-05-06 13:49 | 38.83242 | 117.00109 | 20340 ft | 404 kts | 182° |
| 2026-05-06 13:50 | 38.80437 | 117.00416 | 20809 ft | 406 kts | 182° |
| 2026-05-06 13:50 | 38.77609 | 117.00728 | 21266 ft | 408 kts | 182° |
| 2026-05-06 13:50 | 38.74807 | 117.01036 | 21723 ft | 410 kts | 182° |
| 2026-05-06 13:50 | 38.71964 | 117.01347 | 22139 ft | 412 kts | 182° |
| 2026-05-06 13:51 | 38.69097 | 117.01662 | 22621 ft | 413 kts | 182° |
| 2026-05-06 13:51 | 38.66224 | 117.01979 | 23068 ft | 415 kts | 183° |
| 2026-05-06 13:51 | 38.63343 | 117.02295 | 23499 ft | 417 kts | 183° |
| 2026-05-06 13:51 | 38.60434 | 117.02614 | 23856 ft | 419 kts | 183° |
| 2026-05-06 13:52 | 38.57522 | 117.02937 | 24210 ft | 420 kts | 183° |
| 2026-05-06 13:52 | 38.54600 | 117.03261 | 24569 ft | 421 kts | 183° |
| 2026-05-06 13:52 | 38.51681 | 117.03583 | 24923 ft | 423 kts | 183° |
| 2026-05-06 13:52 | 38.48780 | 117.03901 | 25254 ft | 424 kts | 183° |
| 2026-05-06 13:53 | 38.45840 | 117.04222 | 25594 ft | 425 kts | 184° |
| 2026-05-06 13:53 | 38.42887 | 117.04544 | 25936 ft | 427 kts | 184° |
| 2026-05-06 13:53 | 38.39925 | 117.04868 | 26269 ft | 428 kts | 184° |
| 2026-05-06 13:53 | 38.36958 | 117.05190 | 26597 ft | 430 kts | 184° |
| 2026-05-06 13:54 | 38.33974 | 117.05513 | 26920 ft | 431 kts | 184° |
| 2026-05-06 13:54 | 38.30965 | 117.05838 | 27231 ft | 433 kts | 184° |
| 2026-05-06 13:54 | 38.27963 | 117.06158 | 27487 ft | 435 kts | 184° |
| 2026-05-06 13:54 | 38.24938 | 117.06481 | 27745 ft | 437 kts | 184° |
| 2026-05-06 13:55 | 38.21903 | 117.06812 | 28025 ft | 439 kts | 184° |
| 2026-05-06 13:55 | 38.18847 | 117.07147 | 28305 ft | 441 kts | 184° |
| 2026-05-06 13:55 | 38.15783 | 117.07483 | 28580 ft | 442 kts | 184° |
| 2026-05-06 13:55 | 38.12706 | 117.07822 | 28854 ft | 444 kts | 184° |
| 2026-05-06 13:56 | 38.09631 | 117.08156 | 29122 ft | 445 kts | 184° |
| 2026-05-06 13:56 | 38.06583 | 117.08485 | 29440 ft | 444 kts | 184° |
| 2026-05-06 13:56 | 38.03462 | 117.08822 | 29817 ft | 444 kts | 184° |
| 2026-05-06 13:56 | 38.00389 | 117.09155 | 30162 ft | 443 kts | 184° |
| 2026-05-06 13:57 | 37.97361 | 117.09485 | 30483 ft | 442 kts | 184° |
| 2026-05-06 13:57 | 37.94301 | 117.09818 | 30784 ft | 441 kts | 184° |
| 2026-05-06 13:57 | 37.91241 | 117.10149 | 31091 ft | 440 kts | 185° |
| 2026-05-06 13:57 | 37.88187 | 117.10477 | 31402 ft | 440 kts | 185° |
| 2026-05-06 13:58 | 37.85145 | 117.10805 | 31712 ft | 439 kts | 185° |
| 2026-05-06 13:58 | 37.82097 | 117.11133 | 32023 ft | 438 kts | 186° |
| 2026-05-06 13:58 | 37.79070 | 117.11454 | 32320 ft | 437 kts | 186° |
| 2026-05-06 13:58 | 37.76034 | 117.11775 | 32634 ft | 437 kts | 186° |
| 2026-05-06 13:59 | 37.73014 | 117.12096 | 32942 ft | 436 kts | 186° |
| 2026-05-06 13:59 | 37.69990 | 117.12420 | 33251 ft | 435 kts | 186° |
| 2026-05-06 13:59 | 37.66980 | 117.12747 | 33558 ft | 435 kts | 187° |
| 2026-05-06 13:59 | 37.63969 | 117.13073 | 33820 ft | 434 kts | 187° |
| 2026-05-06 14:00 | 37.60995 | 117.13393 | 34061 ft | 434 kts | 187° |
| 2026-05-06 14:00 | 37.57978 | 117.13712 | 34312 ft | 434 kts | 187° |
| 2026-05-06 14:00 | 37.54980 | 117.14029 | 34570 ft | 433 kts | 187° |
| 2026-05-06 14:00 | 37.51978 | 117.14348 | 34827 ft | 433 kts | 187° |
| 2026-05-06 14:01 | 37.48977 | 117.14668 | 34969 ft | 433 kts | 187° |
| 2026-05-06 14:01 | 37.45975 | 117.14987 | 35002 ft | 434 kts | 187° |
| 2026-05-06 14:01 | 37.39944 | 117.15618 | 34993 ft | 437 kts | 187° |
| 2026-05-06 14:02 | 37.33858 | 117.16251 | 34994 ft | 440 kts | 187° |
| 2026-05-06 14:02 | 37.27771 | 117.16902 | 34989 ft | 441 kts | 187° |
| 2026-05-06 14:03 | 37.21668 | 117.17563 | 34986 ft | 439 kts | 187° |
| 2026-05-06 14:03 | 37.15594 | 117.18203 | 34948 ft | 440 kts | 187° |
| 2026-05-06 14:04 | 37.09469 | 117.18838 | 34957 ft | 442 kts | 186° |
| 2026-05-06 14:04 | 37.03328 | 117.19482 | 34965 ft | 444 kts | 186° |
| 2026-05-06 14:05 | 36.97180 | 117.20128 | 34948 ft | 445 kts | 186° |
| 2026-05-06 14:05 | 36.90983 | 117.20782 | 34963 ft | 446 kts | 186° |
| 2026-05-06 14:06 | 36.84827 | 117.21431 | 34967 ft | 447 kts | 186° |
| 2026-05-06 14:06 | 36.78705 | 117.21581 | 34981 ft | 439 kts | 191° |
| 2026-05-06 14:07 | 36.72571 | 117.21526 | 34961 ft | 443 kts | 191° |
| 2026-05-06 14:07 | 36.66503 | 117.21479 | 34969 ft | 444 kts | 191° |
| 2026-05-06 14:08 | 36.60302 | 117.21442 | 34973 ft | 445 kts | 191° |
| 2026-05-06 14:08 | 36.54115 | 117.21403 | 34951 ft | 446 kts | 191° |
| 2026-05-06 14:09 | 36.47914 | 117.21357 | 34974 ft | 445 kts | 191° |
| 2026-05-06 14:09 | 36.41739 | 117.21586 | 34990 ft | 456 kts | 181° |
| 2026-05-06 14:10 | 36.38601 | 117.22462 | 34989 ft | 468 kts | 173° |
| 2026-05-06 14:10 | 36.35486 | 117.23635 | 34993 ft | 468 kts | 173° |
| 2026-05-06 14:10 | 36.29238 | 117.25975 | 34974 ft | 467 kts | 173° |
| 2026-05-06 14:11 | 36.23036 | 117.28287 | 35007 ft | 464 kts | 173° |
| 2026-05-06 14:11 | 36.16900 | 117.30558 | 35008 ft | 462 kts | 173° |
| 2026-05-06 14:12 | 36.10721 | 117.32838 | 34999 ft | 460 kts | 173° |
| 2026-05-06 14:12 | 36.04630 | 117.35087 | 34973 ft | 459 kts | 172° |
| 2026-05-06 14:13 | 35.98519 | 117.37342 | 34979 ft | 458 kts | 172° |
| 2026-05-06 14:13 | 35.92413 | 117.39623 | 34982 ft | 458 kts | 172° |
| 2026-05-06 14:14 | 35.86328 | 117.41916 | 34981 ft | 457 kts | 172° |
| 2026-05-06 14:14 | 35.80231 | 117.44198 | 34946 ft | 457 kts | 171° |
| 2026-05-06 14:15 | 35.74152 | 117.46467 | 34952 ft | 457 kts | 171° |
| 2026-05-06 14:15 | 35.69091 | 117.48349 | 34942 ft | 457 kts | 171° |
| 2026-05-06 14:16 | 35.63002 | 117.50610 | 34948 ft | 457 kts | 171° |
| 2026-05-06 14:16 | 35.56951 | 117.52861 | 34948 ft | 457 kts | 171° |
| 2026-05-06 14:17 | 35.50872 | 117.55114 | 34955 ft | 457 kts | 171° |
| 2026-05-06 14:17 | 35.44780 | 117.57363 | 34952 ft | 457 kts | 171° |
| 2026-05-06 14:18 | 35.38699 | 117.59609 | 34958 ft | 457 kts | 171° |
| 2026-05-06 14:18 | 35.32602 | 117.61864 | 34930 ft | 457 kts | 171° |
| 2026-05-06 14:19 | 35.26508 | 117.64108 | 34937 ft | 457 kts | 171° |
| 2026-05-06 14:19 | 35.20428 | 117.66345 | 34947 ft | 457 kts | 171° |
| 2026-05-06 14:20 | 35.14345 | 117.68584 | 34958 ft | 457 kts | 171° |
| 2026-05-06 14:20 | 35.08247 | 117.70821 | 34945 ft | 457 kts | 171° |
| 2026-05-06 14:21 | 35.02187 | 117.73037 | 34952 ft | 456 kts | 171° |
| 2026-05-06 14:21 | 34.96103 | 117.75254 | 34956 ft | 456 kts | 171° |
| 2026-05-06 14:22 | 34.90018 | 117.77478 | 34962 ft | 456 kts | 171° |
| 2026-05-06 14:22 | 34.83950 | 117.79699 | 34962 ft | 456 kts | 171° |
| 2026-05-06 14:23 | 34.77907 | 117.81905 | 34942 ft | 456 kts | 170° |
| 2026-05-06 14:23 | 34.71821 | 117.84091 | 34962 ft | 456 kts | 171° |
| 2026-05-06 14:24 | 34.65733 | 117.86270 | 34967 ft | 456 kts | 171° |
| 2026-05-06 14:24 | 34.59648 | 117.88460 | 34975 ft | 456 kts | 170° |
| 2026-05-06 14:25 | 34.53597 | 117.90637 | 34963 ft | 456 kts | 170° |
| 2026-05-06 14:25 | 34.47467 | 117.92835 | 34970 ft | 456 kts | 170° |
| 2026-05-06 14:26 | 34.41426 | 117.95039 | 34976 ft | 460 kts | 165° |
| 2026-05-06 14:26 | 34.38695 | 117.96767 | 34979 ft | 472 kts | 151° |
| 2026-05-06 14:26 | 34.36020 | 117.99099 | 34976 ft | 474 kts | 150° |
| 2026-05-06 14:27 | 34.30679 | 118.03771 | 34960 ft | 474 kts | 150° |
| 2026-05-06 14:27 | 34.25323 | 118.08434 | 34974 ft | 474 kts | 149° |
| 2026-05-06 14:28 | 34.19979 | 118.13091 | 34992 ft | 473 kts | 149° |
| 2026-05-06 14:28 | 34.14670 | 118.17715 | 34998 ft | 473 kts | 149° |
| 2026-05-06 14:29 | 34.09302 | 118.22374 | 35009 ft | 472 kts | 149° |
| 2026-05-06 14:29 | 34.04002 | 118.26964 | 35008 ft | 472 kts | 149° |
| 2026-05-06 14:30 | 33.98672 | 118.31579 | 34988 ft | 472 kts | 149° |
| 2026-05-06 14:30 | 33.93327 | 118.36198 | 35005 ft | 472 kts | 149° |
| 2026-05-06 14:31 | 33.87985 | 118.40804 | 34994 ft | 472 kts | 149° |
| 2026-05-06 14:31 | 33.82658 | 118.45388 | 34994 ft | 472 kts | 149° |
| 2026-05-06 14:32 | 33.77322 | 118.49977 | 34995 ft | 472 kts | 149° |
| 2026-05-06 14:32 | 33.71970 | 118.54571 | 34980 ft | 473 kts | 149° |
| 2026-05-06 14:33 | 33.66603 | 118.59170 | 34987 ft | 473 kts | 149° |
| 2026-05-06 14:33 | 33.61247 | 118.63759 | 34991 ft | 474 kts | 149° |
| 2026-05-06 14:34 | 33.55868 | 118.68354 | 34983 ft | 474 kts | 149° |
| 2026-05-06 14:34 | 33.50496 | 118.72947 | 34990 ft | 475 kts | 149° |
| 2026-05-06 14:35 | 33.45107 | 118.77542 | 34999 ft | 475 kts | 149° |
| 2026-05-06 14:35 | 33.39762 | 118.82083 | 34995 ft | 475 kts | 149° |
| 2026-05-06 14:36 | 33.34361 | 118.86661 | 35001 ft | 475 kts | 149° |
| 2026-05-06 14:36 | 33.28974 | 118.91236 | 35013 ft | 475 kts | 149° |
| 2026-05-06 14:37 | 33.23585 | 118.95804 | 35009 ft | 475 kts | 149° |
| 2026-05-06 14:37 | 33.20918 | 118.98058 | 34907 ft | 476 kts | 149° |
| 2026-05-06 14:37 | 33.18210 | 119.00343 | 34671 ft | 476 kts | 149° |
| 2026-05-06 14:38 | 33.15495 | 119.02631 | 34435 ft | 477 kts | 149° |
| 2026-05-06 14:38 | 33.12777 | 119.04924 | 34176 ft | 477 kts | 149° |
| 2026-05-06 14:38 | 33.10060 | 119.07217 | 33955 ft | 479 kts | 149° |
| 2026-05-06 14:38 | 33.07347 | 119.09510 | 33708 ft | 479 kts | 149° |
| 2026-05-06 14:39 | 33.04623 | 119.11808 | 33442 ft | 480 kts | 149° |
| 2026-05-06 14:39 | 33.01890 | 119.14107 | 33177 ft | 481 kts | 149° |
| 2026-05-06 14:39 | 32.99161 | 119.16401 | 32928 ft | 481 kts | 149° |
| 2026-05-06 14:39 | 32.96429 | 119.18696 | 32676 ft | 482 kts | 149° |
| 2026-05-06 14:40 | 32.93681 | 119.21000 | 32427 ft | 483 kts | 149° |
| 2026-05-06 14:40 | 32.90967 | 119.23272 | 32182 ft | 483 kts | 149° |
| 2026-05-06 14:40 | 32.88211 | 119.25578 | 31933 ft | 484 kts | 149° |
| 2026-05-06 14:40 | 32.85431 | 119.27908 | 31682 ft | 485 kts | 149° |
| 2026-05-06 14:41 | 32.82664 | 119.30228 | 31433 ft | 485 kts | 149° |
| 2026-05-06 14:41 | 32.79944 | 119.32507 | 31202 ft | 486 kts | 149° |
| 2026-05-06 14:41 | 32.77169 | 119.34828 | 30967 ft | 486 kts | 149° |
| 2026-05-06 14:41 | 32.74399 | 119.37141 | 30730 ft | 487 kts | 149° |
| 2026-05-06 14:42 | 32.71623 | 119.39449 | 30494 ft | 488 kts | 149° |
| 2026-05-06 14:42 | 32.68840 | 119.41763 | 30264 ft | 488 kts | 149° |
| 2026-05-06 14:42 | 32.66053 | 119.44080 | 30031 ft | 489 kts | 149° |
| 2026-05-06 14:42 | 32.63266 | 119.46400 | 29769 ft | 490 kts | 149° |
| 2026-05-06 14:43 | 32.60469 | 119.48726 | 29501 ft | 490 kts | 149° |
| 2026-05-06 14:43 | 32.57673 | 119.51049 | 29232 ft | 490 kts | 149° |
| 2026-05-06 14:43 | 32.54916 | 119.53335 | 28965 ft | 490 kts | 149° |
| 2026-05-06 14:43 | 32.52129 | 119.55643 | 28687 ft | 486 kts | 149° |
| 2026-05-06 14:44 | 32.49364 | 119.57937 | 28435 ft | 483 kts | 149° |
| 2026-05-06 14:44 | 32.46616 | 119.60215 | 28174 ft | 481 kts | 149° |
| 2026-05-06 14:44 | 32.43884 | 119.62477 | 27914 ft | 478 kts | 149° |
| 2026-05-06 14:45 | 32.38458 | 119.66969 | 27415 ft | 474 kts | 150° |
| 2026-05-06 14:45 | 32.35762 | 119.69196 | 27167 ft | 472 kts | 150° |
| 2026-05-06 14:45 | 32.33070 | 119.71421 | 26923 ft | 470 kts | 150° |
| 2026-05-06 14:45 | 32.30397 | 119.73628 | 26684 ft | 468 kts | 150° |
| 2026-05-06 14:46 | 32.27739 | 119.75816 | 26442 ft | 466 kts | 150° |
| 2026-05-06 14:46 | 32.25079 | 119.78003 | 26194 ft | 464 kts | 150° |
| 2026-05-06 14:46 | 32.22430 | 119.80180 | 25949 ft | 462 kts | 150° |
| 2026-05-06 14:46 | 32.19799 | 119.82341 | 25711 ft | 460 kts | 150° |
| 2026-05-06 14:47 | 32.17175 | 119.84496 | 25474 ft | 459 kts | 150° |
| 2026-05-06 14:47 | 32.14558 | 119.86642 | 25241 ft | 457 kts | 150° |
| 2026-05-06 14:47 | 32.11961 | 119.88772 | 25014 ft | 455 kts | 150° |
| 2026-05-06 14:47 | 32.09368 | 119.90903 | 24784 ft | 453 kts | 150° |
| 2026-05-06 14:48 | 32.06785 | 119.93026 | 24558 ft | 452 kts | 150° |
| 2026-05-06 14:48 | 32.04204 | 119.95140 | 24336 ft | 450 kts | 150° |
| 2026-05-06 14:48 | 32.01671 | 119.97209 | 24112 ft | 448 kts | 150° |
| 2026-05-06 14:48 | 31.99108 | 119.99305 | 23889 ft | 447 kts | 150° |
| 2026-05-06 14:49 | 31.96561 | 120.01389 | 23675 ft | 445 kts | 150° |
| 2026-05-06 14:49 | 31.94020 | 120.03463 | 23448 ft | 443 kts | 150° |
| 2026-05-06 14:49 | 31.91484 | 120.05531 | 23168 ft | 442 kts | 150° |
| 2026-05-06 14:49 | 31.88965 | 120.07586 | 22905 ft | 440 kts | 150° |
| 2026-05-06 14:50 | 31.86459 | 120.09628 | 22529 ft | 436 kts | 150° |
| 2026-05-06 14:50 | 31.83970 | 120.11652 | 21901 ft | 432 kts | 150° |
| 2026-05-06 14:50 | 31.81512 | 120.13648 | 21327 ft | 428 kts | 150° |
| 2026-05-06 14:50 | 31.79081 | 120.15622 | 20770 ft | 424 kts | 150° |
| 2026-05-06 14:51 | 31.76667 | 120.17583 | 20231 ft | 420 kts | 149° |
| 2026-05-06 14:51 | 31.74270 | 120.19530 | 19711 ft | 416 kts | 149° |
| 2026-05-06 14:51 | 31.71927 | 120.21432 | 19201 ft | 412 kts | 149° |
| 2026-05-06 14:51 | 31.69580 | 120.23336 | 18699 ft | 409 kts | 149° |
| 2026-05-06 14:52 | 31.67248 | 120.25225 | 18198 ft | 406 kts | 149° |
| 2026-05-06 14:52 | 31.64930 | 120.27101 | 17652 ft | 402 kts | 149° |
| 2026-05-06 14:52 | 31.62643 | 120.28961 | 17138 ft | 398 kts | 148° |
| 2026-05-06 14:52 | 31.60555 | 120.31087 | 16639 ft | 399 kts | 136° |
| 2026-05-06 14:53 | 31.58836 | 120.33652 | 16111 ft | 402 kts | 125° |
| 2026-05-06 14:53 | 31.57551 | 120.36597 | 15579 ft | 405 kts | 114° |
| 2026-05-06 14:53 | 31.56616 | 120.39703 | 15029 ft | 404 kts | 111° |
| 2026-05-06 14:53 | 31.55710 | 120.42776 | 14501 ft | 403 kts | 111° |
| 2026-05-06 14:54 | 31.54786 | 120.45911 | 13953 ft | 401 kts | 111° |
| 2026-05-06 14:54 | 31.53884 | 120.48956 | 13369 ft | 400 kts | 111° |
| 2026-05-06 14:54 | 31.52970 | 120.52022 | 12838 ft | 396 kts | 111° |
| 2026-05-06 14:54 | 31.52061 | 120.55064 | 12308 ft | 393 kts | 111° |
| 2026-05-06 14:55 | 31.51160 | 120.58081 | 11778 ft | 389 kts | 110° |
| 2026-05-06 14:55 | 31.50271 | 120.61054 | 11263 ft | 385 kts | 110° |
| 2026-05-06 14:55 | 31.49391 | 120.63995 | 10793 ft | 380 kts | 110° |
| 2026-05-06 14:55 | 31.48530 | 120.66865 | 10644 ft | 365 kts | 110° |
| 2026-05-06 14:56 | 31.47703 | 120.69616 | 10527 ft | 351 kts | 110° |
| 2026-05-06 14:56 | 31.46908 | 120.72258 | 10404 ft | 338 kts | 110° |
| 2026-05-06 14:56 | 31.46136 | 120.74821 | 10292 ft | 326 kts | 110° |
| 2026-05-06 14:56 | 31.45403 | 120.77255 | 10168 ft | 316 kts | 110° |
| 2026-05-06 14:57 | 31.44681 | 120.79652 | 9952 ft | 310 kts | 110° |
| 2026-05-06 14:57 | 31.43965 | 120.82027 | 9626 ft | 308 kts | 110° |
| 2026-05-06 14:57 | 31.43255 | 120.84379 | 9299 ft | 305 kts | 110° |
| 2026-05-06 14:57 | 31.42547 | 120.86716 | 8983 ft | 303 kts | 110° |
| 2026-05-06 14:58 | 31.41845 | 120.89037 | 8665 ft | 301 kts | 110° |
| 2026-05-06 14:58 | 31.41149 | 120.91338 | 8347 ft | 300 kts | 110° |
| 2026-05-06 14:58 | 31.40453 | 120.93638 | 8052 ft | 298 kts | 110° |
| 2026-05-06 14:58 | 31.39967 | 120.95994 | 7730 ft | 297 kts | 96° |
| 2026-05-06 14:59 | 31.39802 | 120.98401 | 7306 ft | 297 kts | 94° |
| 2026-05-06 14:59 | 31.39645 | 121.00800 | 6899 ft | 292 kts | 94° |
| 2026-05-06 14:59 | 31.39488 | 121.03162 | 6502 ft | 290 kts | 94° |
| 2026-05-06 14:59 | 31.39332 | 121.05510 | 6090 ft | 289 kts | 94° |
| 2026-05-06 15:00 | 31.39174 | 121.07840 | 5698 ft | 287 kts | 95° |
| 2026-05-06 15:00 | 31.39015 | 121.10178 | 5299 ft | 287 kts | 95° |
| 2026-05-06 15:00 | 31.38856 | 121.12511 | 4904 ft | 285 kts | 95° |
| 2026-05-06 15:00 | 31.38701 | 121.14768 | 4753 ft | 275 kts | 95° |
| 2026-05-06 15:01 | 31.38553 | 121.16937 | 4649 ft | 262 kts | 95° |
| 2026-05-06 15:01 | 31.38410 | 121.19014 | 4539 ft | 250 kts | 95° |
| 2026-05-06 15:01 | 31.38274 | 121.20994 | 4436 ft | 240 kts | 96° |
| 2026-05-06 15:01 | 31.38183 | 121.22921 | 4243 ft | 236 kts | 92° |
| 2026-05-06 15:02 | 31.38175 | 121.24883 | 3750 ft | 245 kts | 91° |
| 2026-05-06 15:02 | 31.38197 | 121.26868 | 3314 ft | 243 kts | 91° |
| 2026-05-06 15:02 | 31.38225 | 121.28812 | 3084 ft | 231 kts | 91° |
| 2026-05-06 15:02 | 31.38217 | 121.30626 | 3026 ft | 216 kts | 101° |
| 2026-05-06 15:03 | 31.37583 | 121.32119 | 2972 ft | 201 kts | 143° |
| 2026-05-06 15:03 | 31.36365 | 121.32741 | 2859 ft | 193 kts | 177° |
| 2026-05-06 15:03 | 31.35059 | 121.32808 | 2679 ft | 184 kts | 179° |
| 2026-05-06 15:03 | 31.33814 | 121.32871 | 2426 ft | 173 kts | 178° |
| 2026-05-06 15:04 | 31.32657 | 121.32932 | 2234 ft | 156 kts | 177° |
| 2026-05-06 15:04 | 31.31629 | 121.32987 | 2020 ft | 143 kts | 177° |
| 2026-05-06 15:04 | 31.30656 | 121.33040 | 1836 ft | 138 kts | 176° |
| 2026-05-06 15:04 | 31.29701 | 121.33091 | 1659 ft | 136 kts | 176° |
| 2026-05-06 15:05 | 31.28767 | 121.33142 | 1475 ft | 136 kts | 176° |
| 2026-05-06 15:05 | 31.27826 | 121.33193 | 1292 ft | 135 kts | 175° |
| 2026-05-06 15:05 | 31.26890 | 121.33244 | 1113 ft | 134 kts | 176° |
| 2026-05-06 15:05 | 31.25960 | 121.33294 | 930 ft | 134 kts | 175° |
| 2026-05-06 15:06 | 31.25021 | 121.33344 | 752 ft | 135 kts | 175° |
| 2026-05-06 15:06 | 31.24087 | 121.33392 | 568 ft | 133 kts | 173° |
| 2026-05-06 15:06 | 31.23155 | 121.33448 | 420 ft | 136 kts | 175° |
| 2026-05-06 15:06 | 31.22253 | 121.33500 | 247 ft | 133 kts | 175° |
| 2026-05-06 15:07 | 31.21310 | 121.33550 | 65 ft | 135 kts | 178° |
| 2026-05-06 15:07 | 31.20430 | 121.33584 | 20 ft | 113 kts | 175° |
| 2026-05-06 15:07 | 31.19818 | 121.33627 | 19 ft | 63 kts | 177° |
| 2026-05-06 15:07 | 31.19550 | 121.33642 | 21 ft | 20 kts | 181° |
| 2026-05-06 15:08 | 31.19409 | 121.33623 | 20 ft | 21 kts | 194° |
| 2026-05-06 15:08 | 31.19287 | 121.33565 | 21 ft | 16 kts | 205° |
| 2026-05-06 15:08 | 31.19280 | 121.33562 | 20 ft | 0 kts | 205° |
| 2026-05-06 15:09 | 31.19273 | 121.33557 | 19 ft | 3 kts | 205° |
| 2026-05-06 15:09 | 31.19255 | 121.33547 | 19 ft | 4 kts | 206° |
| 2026-05-06 15:09 | 31.19201 | 121.33517 | 19 ft | 11 kts | 205° |
| 2026-05-06 15:10 | 31.19132 | 121.33469 | 19 ft | 12 kts | 233° |
| 2026-05-06 15:10 | 31.19117 | 121.33382 | 19 ft | 11 kts | 267° |
| 2026-05-06 15:10 | 31.19113 | 121.33298 | 18 ft | 10 kts | 267° |
| 2026-05-06 15:10 | 31.19111 | 121.33221 | 18 ft | 9 kts | 267° |
| 2026-05-06 15:11 | 31.19108 | 121.33161 | 19 ft | 6 kts | 267° |
| 2026-05-06 15:11 | 31.19107 | 121.33116 | 19 ft | 5 kts | 268° |
| 2026-05-06 15:11 | 31.19105 | 121.33081 | 21 ft | 4 kts | 268° |
| 2026-05-06 15:11 | 31.19104 | 121.33055 | 19 ft | 3 kts | 268° |
| 2026-05-06 15:12 | 31.19104 | 121.33036 | 19 ft | 2 kts | 268° |
| 2026-05-06 15:12 | 31.19126 | 121.32989 | 19 ft | 7 kts | 353° |
| 2026-05-06 15:12 | 31.19176 | 121.33005 | 19 ft | 12 kts | 5° |
| 2026-05-06 15:12 | 31.19284 | 121.33000 | 19 ft | 10 kts | 359° |
| 2026-05-06 15:13 | 31.19352 | 121.32997 | 19 ft | 9 kts | 356° |
| 2026-05-06 15:13 | 31.19394 | 121.32994 | 19 ft | 9 kts | 356° |
| 2026-05-06 15:13 | 31.19450 | 121.32990 | 19 ft | 8 kts | 357° |
| 2026-05-06 15:13 | 31.19498 | 121.32988 | 19 ft | 6 kts | 358° |
| 2026-05-06 15:14 | 31.19539 | 121.32986 | 19 ft | 5 kts | 358° |
| 2026-05-06 15:14 | 31.19571 | 121.32977 | 19 ft | 4 kts | 323° |
| 2026-05-06 15:14 | 31.19583 | 121.32953 | 19 ft | 3 kts | 288° |
| 2026-05-06 15:14 | 31.19583 | 121.32933 | 19 ft | 2 kts | 264° |
| 2026-05-06 15:15 | 31.19582 | 121.32919 | 19 ft | 3 kts | 269° |
| 2026-05-06 15:15 | 31.19579 | 121.32885 | 19 ft | 3 kts | 252° |
| 2026-05-06 15:15 | 31.19560 | 121.32871 | 19 ft | 2 kts | 201° |
| 2026-05-06 15:15 | 31.19555 | 121.32870 | 19 ft | 1 kts | 191° |
| 2026-05-06 15:16 | 31.19551 | 121.32869 | 19 ft | 2 kts | 186° |
| 2026-05-06 15:16 | 31.19516 | 121.32870 | 19 ft | 6 kts | 180° |
| 2026-05-06 15:16 | 31.19504 | 121.32861 | 19 ft | 1 kts | 223° |
| 2026-05-06 15:16 | 31.19497 | 121.32854 | 19 ft | 2 kts | 221° |
| 2026-05-06 15:17 | 31.19491 | 121.32848 | 19 ft | 0 kts | 219° |